sensor_id;sensor_type;location;lat;lon;timestamp;temperature;humidity
59651;DHT22;45954;49.768;8.636;2022-12-18T00:01:19;-5.70;99.90
59651;DHT22;45954;49.768;8.636;2022-12-18T00:03:55;-5.50;99.90
59651;DHT22;45954;49.768;8.636;2022-12-18T00:06:22;-5.40;99.90
59651;DHT22;45954;49.768;8.636;2022-12-18T00:08:49;-5.50;99.90
59651;DHT22;45954;49.768;8.636;2022-12-18T00:11:17;-5.70;99.90
59651;DHT22;45954;49.768;8.636;2022-12-18T00:13:45;-5.50;99.90
59651;DHT22;45954;49.768;8.636;2022-12-18T00:16:14;-5.30;99.90
59651;DHT22;45954;49.768;8.636;2022-12-18T00:18:42;-5.30;99.90
59651;DHT22;45954;49.768;8.636;2022-12-18T00:21:10;-5.60;99.90
59651;DHT22;45954;49.768;8.636;2022-12-18T00:23:38;-5.60;99.90
59651;DHT22;45954;49.768;8.636;2022-12-18T00:26:09;-5.70;99.90
59651;DHT22;45954;49.768;8.636;2022-12-18T00:28:41;-5.90;99.90
59651;DHT22;45954;49.768;8.636;2022-12-18T00:31:18;-5.90;99.90
59651;DHT22;45954;49.768;8.636;2022-12-18T00:33:46;-6.00;99.90
59651;DHT22;45954;49.768;8.636;2022-12-18T00:36:18;-6.00;99.90
59651;DHT22;45954;49.768;8.636;2022-12-18T00:38:46;-5.70;99.90
59651;DHT22;45954;49.768;8.636;2022-12-18T00:41:15;-5.60;99.90
59651;DHT22;45954;49.768;8.636;2022-12-18T00:44:02;-5.50;99.90
59651;DHT22;45954;49.768;8.636;2022-12-18T00:46:29;-5.50;99.90
59651;DHT22;45954;49.768;8.636;2022-12-18T00:48:55;-5.50;99.90
59651;DHT22;45954;49.768;8.636;2022-12-18T00:51:22;-5.50;99.90
59651;DHT22;45954;49.768;8.636;2022-12-18T00:53:48;-6.10;99.90
59651;DHT22;45954;49.768;8.636;2022-12-18T00:56:13;-6.20;99.90
59651;DHT22;45954;49.768;8.636;2022-12-18T00:58:39;-6.20;99.90
59651;DHT22;45954;49.768;8.636;2022-12-18T01:01:06;-6.10;99.90
59651;DHT22;45954;49.768;8.636;2022-12-18T01:03:31;-6.00;99.90
59651;DHT22;45954;49.768;8.636;2022-12-18T01:05:58;-5.90;99.90
59651;DHT22;45954;49.768;8.636;2022-12-18T01:08:23;-5.80;99.90
59651;DHT22;45954;49.768;8.636;2022-12-18T01:10:49;-5.80;99.90
59651;DHT22;45954;49.768;8.636;2022-12-18T01:13:15;-5.60;99.90
59651;DHT22;45954;49.768;8.636;2022-12-18T01:15:48;-5.50;99.90
59651;DHT22;45954;49.768;8.636;2022-12-18T01:18:14;-5.70;99.90
59651;DHT22;45954;49.768;8.636;2022-12-18T01:20:40;-5.70;99.90
59651;DHT22;45954;49.768;8.636;2022-12-18T01:23:06;-5.70;99.90
59651;DHT22;45954;49.768;8.636;2022-12-18T01:25:32;-5.70;99.90
59651;DHT22;45954;49.768;8.636;2022-12-18T01:27:58;-5.90;99.90
59651;DHT22;45954;49.768;8.636;2022-12-18T01:30:24;-5.90;99.90
59651;DHT22;45954;49.768;8.636;2022-12-18T01:32:50;-6.00;99.90
59651;DHT22;45954;49.768;8.636;2022-12-18T01:35:16;-6.00;99.90
59651;DHT22;45954;49.768;8.636;2022-12-18T01:37:42;-6.20;99.90
59651;DHT22;45954;49.768;8.636;2022-12-18T01:40:08;-6.20;99.90
59651;DHT22;45954;49.768;8.636;2022-12-18T01:42:35;-6.10;99.90
59651;DHT22;45954;49.768;8.636;2022-12-18T01:45:04;-6.10;99.90
59651;DHT22;45954;49.768;8.636;2022-12-18T01:47:39;-5.90;99.90
59651;DHT22;45954;49.768;8.636;2022-12-18T01:50:16;-5.90;99.90
59651;DHT22;45954;49.768;8.636;2022-12-18T01:52:58;-5.90;99.90
59651;DHT22;45954;49.768;8.636;2022-12-18T01:55:32;-6.10;99.90
59651;DHT22;45954;49.768;8.636;2022-12-18T01:58:03;-6.20;99.90
59651;DHT22;45954;49.768;8.636;2022-12-18T02:00:30;-6.00;99.90
59651;DHT22;45954;49.768;8.636;2022-12-18T02:02:56;-5.80;99.90
59651;DHT22;45954;49.768;8.636;2022-12-18T02:08:44;-6.00;99.90
59651;DHT22;45954;49.768;8.636;2022-12-18T02:11:29;-6.00;99.90
59651;DHT22;45954;49.768;8.636;2022-12-18T02:20:02;-6.10;99.90
59651;DHT22;45954;49.768;8.636;2022-12-18T02:28:59;-6.20;99.90
59651;DHT22;45954;49.768;8.636;2022-12-18T02:31:51;-6.30;99.90
59651;DHT22;45954;49.768;8.636;2022-12-18T02:34:21;-6.20;99.90
59651;DHT22;45954;49.768;8.636;2022-12-18T02:36:51;-6.00;99.90
59651;DHT22;45954;49.768;8.636;2022-12-18T02:39:22;-6.10;99.90
59651;DHT22;45954;49.768;8.636;2022-12-18T02:41:49;-6.40;99.90
59651;DHT22;45954;49.768;8.636;2022-12-18T02:44:16;-6.50;99.90
59651;DHT22;45954;49.768;8.636;2022-12-18T02:46:49;-6.50;99.90
59651;DHT22;45954;49.768;8.636;2022-12-18T02:52:50;-6.40;99.90
59651;DHT22;45954;49.768;8.636;2022-12-18T02:55:56;-6.30;99.90
59651;DHT22;45954;49.768;8.636;2022-12-18T02:58:51;-6.40;99.90
59651;DHT22;45954;49.768;8.636;2022-12-18T03:01:31;-6.40;99.90
59651;DHT22;45954;49.768;8.636;2022-12-18T03:04:20;-6.40;99.90
59651;DHT22;45954;49.768;8.636;2022-12-18T03:07:00;-6.40;99.90
59651;DHT22;45954;49.768;8.636;2022-12-18T03:09:36;-6.50;99.90
59651;DHT22;45954;49.768;8.636;2022-12-18T03:12:19;-6.50;99.90
59651;DHT22;45954;49.768;8.636;2022-12-18T03:15:09;-6.30;99.90
59651;DHT22;45954;49.768;8.636;2022-12-18T03:17:46;-6.40;99.90
59651;DHT22;45954;49.768;8.636;2022-12-18T03:20:20;-6.50;99.90
59651;DHT22;45954;49.768;8.636;2022-12-18T03:22:53;-6.40;99.90
59651;DHT22;45954;49.768;8.636;2022-12-18T03:25:26;-6.20;99.90
59651;DHT22;45954;49.768;8.636;2022-12-18T03:27:56;-6.30;99.90
59651;DHT22;45954;49.768;8.636;2022-12-18T03:30:30;-6.20;99.90
59651;DHT22;45954;49.768;8.636;2022-12-18T03:33:08;-6.40;99.90
59651;DHT22;45954;49.768;8.636;2022-12-18T03:35:41;-6.40;99.90
59651;DHT22;45954;49.768;8.636;2022-12-18T03:38:10;-6.30;99.90
59651;DHT22;45954;49.768;8.636;2022-12-18T03:44:29;-6.20;99.90
59651;DHT22;45954;49.768;8.636;2022-12-18T03:47:27;-6.00;99.90
59651;DHT22;45954;49.768;8.636;2022-12-18T03:50:16;-6.30;99.90
59651;DHT22;45954;49.768;8.636;2022-12-18T03:53:04;-6.70;99.90
59651;DHT22;45954;49.768;8.636;2022-12-18T03:55:34;-6.70;99.90
59651;DHT22;45954;49.768;8.636;2022-12-18T03:58:04;-6.40;99.90
59651;DHT22;45954;49.768;8.636;2022-12-18T04:00:33;-6.40;99.90
59651;DHT22;45954;49.768;8.636;2022-12-18T04:03:02;-7.40;99.90
59651;DHT22;45954;49.768;8.636;2022-12-18T04:05:30;-7.40;99.90
59651;DHT22;45954;49.768;8.636;2022-12-18T04:08:00;-6.90;99.90
59651;DHT22;45954;49.768;8.636;2022-12-18T04:10:26;-6.60;99.90
59651;DHT22;45954;49.768;8.636;2022-12-18T04:12:56;-6.40;99.90
59651;DHT22;45954;49.768;8.636;2022-12-18T04:15:23;-6.20;99.90
59651;DHT22;45954;49.768;8.636;2022-12-18T04:17:50;-6.20;99.90
59651;DHT22;45954;49.768;8.636;2022-12-18T04:20:17;-6.70;99.90
59651;DHT22;45954;49.768;8.636;2022-12-18T04:22:43;-6.70;99.90
59651;DHT22;45954;49.768;8.636;2022-12-18T04:25:09;-6.80;99.90
59651;DHT22;45954;49.768;8.636;2022-12-18T04:27:35;-6.60;99.90
59651;DHT22;45954;49.768;8.636;2022-12-18T04:30:01;-6.50;99.90
59651;DHT22;45954;49.768;8.636;2022-12-18T04:32:26;-6.60;99.90
59651;DHT22;45954;49.768;8.636;2022-12-18T04:34:52;-6.60;99.90
59651;DHT22;45954;49.768;8.636;2022-12-18T04:37:18;-6.70;99.90
59651;DHT22;45954;49.768;8.636;2022-12-18T04:39:44;-6.70;99.90
59651;DHT22;45954;49.768;8.636;2022-12-18T04:42:10;-6.60;99.90
59651;DHT22;45954;49.768;8.636;2022-12-18T04:44:36;-6.60;99.90
59651;DHT22;45954;49.768;8.636;2022-12-18T04:47:02;-6.90;99.90
59651;DHT22;45954;49.768;8.636;2022-12-18T04:49:28;-6.70;99.90
59651;DHT22;45954;49.768;8.636;2022-12-18T04:51:54;-6.50;99.90
59651;DHT22;45954;49.768;8.636;2022-12-18T04:54:20;-6.40;99.90
59651;DHT22;45954;49.768;8.636;2022-12-18T04:56:46;-6.80;99.90
59651;DHT22;45954;49.768;8.636;2022-12-18T04:59:12;-6.90;99.90
59651;DHT22;45954;49.768;8.636;2022-12-18T05:01:38;-7.00;99.90
59651;DHT22;45954;49.768;8.636;2022-12-18T05:04:04;-7.20;99.90
59651;DHT22;45954;49.768;8.636;2022-12-18T05:06:29;-6.90;99.90
59651;DHT22;45954;49.768;8.636;2022-12-18T05:08:55;-6.60;99.90
59651;DHT22;45954;49.768;8.636;2022-12-18T05:11:21;-6.50;99.90
59651;DHT22;45954;49.768;8.636;2022-12-18T05:13:47;-6.60;99.90
59651;DHT22;45954;49.768;8.636;2022-12-18T05:16:13;-6.60;99.90
59651;DHT22;45954;49.768;8.636;2022-12-18T05:18:40;-6.50;99.90
59651;DHT22;45954;49.768;8.636;2022-12-18T05:21:06;-6.50;99.90
59651;DHT22;45954;49.768;8.636;2022-12-18T05:23:32;-6.60;99.90
59651;DHT22;45954;49.768;8.636;2022-12-18T05:26:00;-6.70;99.90
59651;DHT22;45954;49.768;8.636;2022-12-18T05:28:30;-6.90;99.90
59651;DHT22;45954;49.768;8.636;2022-12-18T05:31:00;-6.90;99.90
59651;DHT22;45954;49.768;8.636;2022-12-18T05:33:30;-6.80;99.90
59651;DHT22;45954;49.768;8.636;2022-12-18T05:36:00;-6.70;99.90
59651;DHT22;45954;49.768;8.636;2022-12-18T05:38:28;-6.80;99.90
59651;DHT22;45954;49.768;8.636;2022-12-18T05:40:55;-6.80;99.90
59651;DHT22;45954;49.768;8.636;2022-12-18T05:43:23;-6.80;99.90
59651;DHT22;45954;49.768;8.636;2022-12-18T05:45:50;-6.70;99.90
59651;DHT22;45954;49.768;8.636;2022-12-18T05:48:17;-6.70;99.90
59651;DHT22;45954;49.768;8.636;2022-12-18T05:50:44;-6.60;99.90
59651;DHT22;45954;49.768;8.636;2022-12-18T05:53:12;-6.60;99.90
59651;DHT22;45954;49.768;8.636;2022-12-18T05:55:41;-6.60;99.90
59651;DHT22;45954;49.768;8.636;2022-12-18T05:58:09;-7.10;99.90
59651;DHT22;45954;49.768;8.636;2022-12-18T06:00:38;-7.00;99.90
59651;DHT22;45954;49.768;8.636;2022-12-18T06:03:09;-7.10;99.90
59651;DHT22;45954;49.768;8.636;2022-12-18T06:05:41;-7.20;99.90
59651;DHT22;45954;49.768;8.636;2022-12-18T06:08:10;-7.10;99.90
59651;DHT22;45954;49.768;8.636;2022-12-18T06:10:37;-7.00;99.90
59651;DHT22;45954;49.768;8.636;2022-12-18T06:13:03;-6.90;99.90
59651;DHT22;45954;49.768;8.636;2022-12-18T06:15:29;-7.20;99.90
59651;DHT22;45954;49.768;8.636;2022-12-18T06:17:55;-7.60;99.90
59651;DHT22;45954;49.768;8.636;2022-12-18T06:20:21;-7.60;99.90
59651;DHT22;45954;49.768;8.636;2022-12-18T06:22:48;-7.40;99.90
59651;DHT22;45954;49.768;8.636;2022-12-18T06:25:14;-7.20;99.90
59651;DHT22;45954;49.768;8.636;2022-12-18T06:27:40;-7.00;99.90
59651;DHT22;45954;49.768;8.636;2022-12-18T06:30:06;-6.90;99.90
59651;DHT22;45954;49.768;8.636;2022-12-18T06:32:32;-6.80;99.90
59651;DHT22;45954;49.768;8.636;2022-12-18T06:34:58;-6.90;99.90
59651;DHT22;45954;49.768;8.636;2022-12-18T06:37:24;-7.00;99.90
59651;DHT22;45954;49.768;8.636;2022-12-18T06:39:52;-6.80;99.90
59651;DHT22;45954;49.768;8.636;2022-12-18T06:42:18;-6.70;99.90
59651;DHT22;45954;49.768;8.636;2022-12-18T06:44:44;-6.50;99.90
59651;DHT22;45954;49.768;8.636;2022-12-18T06:47:10;-6.50;99.90
59651;DHT22;45954;49.768;8.636;2022-12-18T06:49:36;-6.50;99.90
59651;DHT22;45954;49.768;8.636;2022-12-18T06:52:02;-6.50;99.90
59651;DHT22;45954;49.768;8.636;2022-12-18T06:54:28;-6.60;99.90
59651;DHT22;45954;49.768;8.636;2022-12-18T06:56:54;-6.90;99.90
59651;DHT22;45954;49.768;8.636;2022-12-18T06:59:21;-6.70;99.90
59651;DHT22;45954;49.768;8.636;2022-12-18T07:01:47;-6.60;99.90
59651;DHT22;45954;49.768;8.636;2022-12-18T07:04:12;-6.40;99.90
59651;DHT22;45954;49.768;8.636;2022-12-18T07:06:38;-6.40;99.90
59651;DHT22;45954;49.768;8.636;2022-12-18T07:09:04;-7.10;99.90
59651;DHT22;45954;49.768;8.636;2022-12-18T07:11:32;-7.40;99.90
59651;DHT22;45954;49.768;8.636;2022-12-18T07:13:59;-7.00;99.90
59651;DHT22;45954;49.768;8.636;2022-12-18T07:16:25;-7.50;99.90
59651;DHT22;45954;49.768;8.636;2022-12-18T07:18:52;-7.80;99.90
59651;DHT22;45954;49.768;8.636;2022-12-18T07:21:20;-7.30;99.90
59651;DHT22;45954;49.768;8.636;2022-12-18T07:23:46;-7.30;99.90
59651;DHT22;45954;49.768;8.636;2022-12-18T07:26:15;-7.00;99.90
59651;DHT22;45954;49.768;8.636;2022-12-18T07:28:42;-6.60;99.90
59651;DHT22;45954;49.768;8.636;2022-12-18T07:31:15;-6.40;99.90
59651;DHT22;45954;49.768;8.636;2022-12-18T07:33:43;-6.30;99.90
59651;DHT22;45954;49.768;8.636;2022-12-18T07:36:09;-6.20;99.90
59651;DHT22;45954;49.768;8.636;2022-12-18T07:38:36;-6.50;99.90
59651;DHT22;45954;49.768;8.636;2022-12-18T07:41:04;-6.80;99.90
59651;DHT22;45954;49.768;8.636;2022-12-18T07:43:31;-6.60;99.90
59651;DHT22;45954;49.768;8.636;2022-12-18T07:45:57;-6.50;99.90
59651;DHT22;45954;49.768;8.636;2022-12-18T07:48:23;-6.40;99.90
59651;DHT22;45954;49.768;8.636;2022-12-18T07:50:49;-6.50;99.90
59651;DHT22;45954;49.768;8.636;2022-12-18T07:53:15;-6.80;99.90
59651;DHT22;45954;49.768;8.636;2022-12-18T07:55:41;-6.80;99.90
59651;DHT22;45954;49.768;8.636;2022-12-18T07:58:08;-6.70;99.90
59651;DHT22;45954;49.768;8.636;2022-12-18T08:00:35;-6.60;99.90
59651;DHT22;45954;49.768;8.636;2022-12-18T08:03:01;-6.60;99.90
59651;DHT22;45954;49.768;8.636;2022-12-18T08:05:27;-6.60;99.90
59651;DHT22;45954;49.768;8.636;2022-12-18T08:07:54;-6.70;99.90
59651;DHT22;45954;49.768;8.636;2022-12-18T08:10:20;-6.60;99.90
59651;DHT22;45954;49.768;8.636;2022-12-18T08:12:49;-6.50;99.90
59651;DHT22;45954;49.768;8.636;2022-12-18T08:15:16;-6.30;99.90
59651;DHT22;45954;49.768;8.636;2022-12-18T08:17:43;-6.60;99.90
59651;DHT22;45954;49.768;8.636;2022-12-18T08:20:09;-7.10;99.90
59651;DHT22;45954;49.768;8.636;2022-12-18T08:22:38;-7.50;99.90
59651;DHT22;45954;49.768;8.636;2022-12-18T08:25:04;-7.80;99.90
59651;DHT22;45954;49.768;8.636;2022-12-18T08:27:31;-7.90;99.90
59651;DHT22;45954;49.768;8.636;2022-12-18T08:29:57;-7.80;99.90
59651;DHT22;45954;49.768;8.636;2022-12-18T08:32:24;-7.80;99.90
59651;DHT22;45954;49.768;8.636;2022-12-18T08:34:52;-7.20;99.90
59651;DHT22;45954;49.768;8.636;2022-12-18T08:37:18;-6.80;99.90
59651;DHT22;45954;49.768;8.636;2022-12-18T08:39:44;-6.60;99.90
59651;DHT22;45954;49.768;8.636;2022-12-18T08:42:10;-6.40;99.90
59651;DHT22;45954;49.768;8.636;2022-12-18T08:44:54;-6.40;99.90
59651;DHT22;45954;49.768;8.636;2022-12-18T08:47:20;-6.30;99.90
59651;DHT22;45954;49.768;8.636;2022-12-18T08:49:46;-6.10;99.90
59651;DHT22;45954;49.768;8.636;2022-12-18T08:52:12;-6.10;99.90
59651;DHT22;45954;49.768;8.636;2022-12-18T08:54:38;-6.00;99.90
59651;DHT22;45954;49.768;8.636;2022-12-18T08:57:03;-5.90;99.90
59651;DHT22;45954;49.768;8.636;2022-12-18T08:59:29;-5.80;99.90
59651;DHT22;45954;49.768;8.636;2022-12-18T09:01:55;-6.50;99.90
59651;DHT22;45954;49.768;8.636;2022-12-18T09:04:22;-6.40;99.90
59651;DHT22;45954;49.768;8.636;2022-12-18T09:06:48;-6.10;99.90
59651;DHT22;45954;49.768;8.636;2022-12-18T09:09:14;-5.80;99.90
59651;DHT22;45954;49.768;8.636;2022-12-18T09:11:39;-5.70;99.90
59651;DHT22;45954;49.768;8.636;2022-12-18T09:14:05;-5.50;99.90
59651;DHT22;45954;49.768;8.636;2022-12-18T09:16:32;-5.40;99.90
59651;DHT22;45954;49.768;8.636;2022-12-18T09:19:02;-5.30;99.90
59651;DHT22;45954;49.768;8.636;2022-12-18T09:21:31;-5.90;99.90
59651;DHT22;45954;49.768;8.636;2022-12-18T09:23:59;-6.10;99.90
59651;DHT22;45954;49.768;8.636;2022-12-18T09:26:26;-5.50;99.90
59651;DHT22;45954;49.768;8.636;2022-12-18T09:28:52;-5.40;99.90
59651;DHT22;45954;49.768;8.636;2022-12-18T09:31:21;-5.90;99.90
59651;DHT22;45954;49.768;8.636;2022-12-18T09:33:48;-5.70;99.90
59651;DHT22;45954;49.768;8.636;2022-12-18T09:36:16;-5.30;99.90
59651;DHT22;45954;49.768;8.636;2022-12-18T09:38:43;-5.00;99.90
59651;DHT22;45954;49.768;8.636;2022-12-18T09:42:01;-4.80;99.90
59651;DHT22;45954;49.768;8.636;2022-12-18T09:44:35;-4.80;99.90
59651;DHT22;45954;49.768;8.636;2022-12-18T09:47:09;-3.90;99.90
59651;DHT22;45954;49.768;8.636;2022-12-18T09:49:47;-3.80;99.90
59651;DHT22;45954;49.768;8.636;2022-12-18T09:55:05;-2.80;99.90
59651;DHT22;45954;49.768;8.636;2022-12-18T09:57:53;-3.10;99.90
59651;DHT22;45954;49.768;8.636;2022-12-18T10:00:24;-3.20;99.90
59651;DHT22;45954;49.768;8.636;2022-12-18T10:03:00;-3.00;99.90
59651;DHT22;45954;49.768;8.636;2022-12-18T10:11:58;-2.70;99.90
59651;DHT22;45954;49.768;8.636;2022-12-18T10:15:32;-2.70;99.90
59651;DHT22;45954;49.768;8.636;2022-12-18T10:21:07;-2.90;99.90
59651;DHT22;45954;49.768;8.636;2022-12-18T10:23:57;-3.10;99.90
59651;DHT22;45954;49.768;8.636;2022-12-18T10:26:45;-3.20;99.90
59651;DHT22;45954;49.768;8.636;2022-12-18T10:29:14;-3.80;99.90
59651;DHT22;45954;49.768;8.636;2022-12-18T10:31:42;-3.60;99.90
59651;DHT22;45954;49.768;8.636;2022-12-18T10:34:11;-2.80;99.90
59651;DHT22;45954;49.768;8.636;2022-12-18T10:36:37;-2.30;99.90
59651;DHT22;45954;49.768;8.636;2022-12-18T10:39:22;-2.70;99.90
59651;DHT22;45954;49.768;8.636;2022-12-18T10:41:52;-3.00;99.90
59651;DHT22;45954;49.768;8.636;2022-12-18T10:44:35;-2.60;99.90
59651;DHT22;45954;49.768;8.636;2022-12-18T10:47:12;-2.10;99.90
59651;DHT22;45954;49.768;8.636;2022-12-18T10:49:50;-2.70;99.90
59651;DHT22;45954;49.768;8.636;2022-12-18T10:52:22;-3.30;99.90
59651;DHT22;45954;49.768;8.636;2022-12-18T10:54:59;-3.10;99.90
59651;DHT22;45954;49.768;8.636;2022-12-18T10:57:35;-3.10;99.90
59651;DHT22;45954;49.768;8.636;2022-12-18T11:00:26;-3.10;99.90
59651;DHT22;45954;49.768;8.636;2022-12-18T11:02:55;-3.00;99.90
59651;DHT22;45954;49.768;8.636;2022-12-18T11:07:56;-3.00;99.90
59651;DHT22;45954;49.768;8.636;2022-12-18T11:10:32;-2.80;99.90
59651;DHT22;45954;49.768;8.636;2022-12-18T11:13:18;-3.30;99.90
59651;DHT22;45954;49.768;8.636;2022-12-18T11:15:46;-2.80;99.90
59651;DHT22;45954;49.768;8.636;2022-12-18T11:18:29;-2.20;99.90
59651;DHT22;45954;49.768;8.636;2022-12-18T11:21:08;-1.80;99.90
59651;DHT22;45954;49.768;8.636;2022-12-18T11:23:44;-1.60;99.90
59651;DHT22;45954;49.768;8.636;2022-12-18T11:26:17;-1.50;99.90
59651;DHT22;45954;49.768;8.636;2022-12-18T11:28:47;-2.60;99.90
59651;DHT22;45954;49.768;8.636;2022-12-18T11:31:29;-3.00;99.90
59651;DHT22;45954;49.768;8.636;2022-12-18T11:36:52;-3.20;99.90
59651;DHT22;45954;49.768;8.636;2022-12-18T11:39:35;-3.60;99.90
59651;DHT22;45954;49.768;8.636;2022-12-18T11:42:18;-3.50;99.90
59651;DHT22;45954;49.768;8.636;2022-12-18T11:45:01;-3.60;99.90
59651;DHT22;45954;49.768;8.636;2022-12-18T11:48:01;-3.10;99.90
59651;DHT22;45954;49.768;8.636;2022-12-18T11:50:56;-3.30;99.90
59651;DHT22;45954;49.768;8.636;2022-12-18T11:53:28;-3.30;99.90
59651;DHT22;45954;49.768;8.636;2022-12-18T12:08:33;-3.40;99.90
59651;DHT22;45954;49.768;8.636;2022-12-18T12:11:33;-3.20;99.90
59651;DHT22;45954;49.768;8.636;2022-12-18T12:17:36;-3.00;99.90
59651;DHT22;45954;49.768;8.636;2022-12-18T12:20:19;-2.40;99.90
59651;DHT22;45954;49.768;8.636;2022-12-18T12:22:54;-2.20;99.90
59651;DHT22;45954;49.768;8.636;2022-12-18T12:25:44;-2.10;99.90
59651;DHT22;45954;49.768;8.636;2022-12-18T12:39:32;-2.20;99.90
59651;DHT22;45954;49.768;8.636;2022-12-18T12:42:04;-2.00;99.90
59651;DHT22;45954;49.768;8.636;2022-12-18T12:44:57;-2.20;99.90
59651;DHT22;45954;49.768;8.636;2022-12-18T12:47:30;-2.90;99.90
59651;DHT22;45954;49.768;8.636;2022-12-18T12:50:03;-2.90;99.90
59651;DHT22;45954;49.768;8.636;2022-12-18T12:52:44;-3.00;99.90
59651;DHT22;45954;49.768;8.636;2022-12-18T12:55:21;-2.80;99.90
59651;DHT22;45954;49.768;8.636;2022-12-18T12:58:07;-2.50;99.90
59651;DHT22;45954;49.768;8.636;2022-12-18T13:06:32;-2.10;99.90
59651;DHT22;45954;49.768;8.636;2022-12-18T13:09:03;-3.00;99.90
59651;DHT22;45954;49.768;8.636;2022-12-18T13:11:41;-3.10;99.90
59651;DHT22;45954;49.768;8.636;2022-12-18T13:14:33;-2.60;99.90
59651;DHT22;45954;49.768;8.636;2022-12-18T13:19:55;-2.50;99.90
59651;DHT22;45954;49.768;8.636;2022-12-18T13:22:51;-2.20;99.90
59651;DHT22;45954;49.768;8.636;2022-12-18T13:28:09;-2.10;99.90
59651;DHT22;45954;49.768;8.636;2022-12-18T13:38:34;-3.00;99.90
59651;DHT22;45954;49.768;8.636;2022-12-18T13:41:01;-3.00;99.90
59651;DHT22;45954;49.768;8.636;2022-12-18T13:43:46;-2.70;99.90
59651;DHT22;45954;49.768;8.636;2022-12-18T13:49:25;-2.70;99.90
59651;DHT22;45954;49.768;8.636;2022-12-18T13:51:56;-2.30;99.90
59651;DHT22;45954;49.768;8.636;2022-12-18T13:54:30;-2.70;99.90
59651;DHT22;45954;49.768;8.636;2022-12-18T13:56:59;-2.50;99.90
59651;DHT22;45954;49.768;8.636;2022-12-18T13:59:39;-3.10;99.90
59651;DHT22;45954;49.768;8.636;2022-12-18T14:02:22;-3.20;99.90
59651;DHT22;45954;49.768;8.636;2022-12-18T14:04:51;-3.40;99.90
59651;DHT22;45954;49.768;8.636;2022-12-18T14:07:25;-3.40;99.90
59651;DHT22;45954;49.768;8.636;2022-12-18T14:09:56;-3.40;99.90
59651;DHT22;45954;49.768;8.636;2022-12-18T14:17:59;-2.40;99.90
59651;DHT22;45954;49.768;8.636;2022-12-18T14:20:55;-2.40;99.90
59651;DHT22;45954;49.768;8.636;2022-12-18T14:23:36;-2.60;99.90
59651;DHT22;45954;49.768;8.636;2022-12-18T14:26:23;-2.80;99.90
59651;DHT22;45954;49.768;8.636;2022-12-18T14:28:51;-3.00;99.90
59651;DHT22;45954;49.768;8.636;2022-12-18T14:31:18;-3.10;99.90
59651;DHT22;45954;49.768;8.636;2022-12-18T14:33:45;-3.00;99.90
59651;DHT22;45954;49.768;8.636;2022-12-18T14:36:20;-3.00;99.90
59651;DHT22;45954;49.768;8.636;2022-12-18T14:38:50;-3.00;99.90
59651;DHT22;45954;49.768;8.636;2022-12-18T14:41:18;-2.70;99.90
59651;DHT22;45954;49.768;8.636;2022-12-18T14:43:48;-2.50;99.90
59651;DHT22;45954;49.768;8.636;2022-12-18T14:46:35;-2.50;99.90
59651;DHT22;45954;49.768;8.636;2022-12-18T14:49:29;-2.60;99.90
59651;DHT22;45954;49.768;8.636;2022-12-18T14:52:00;-2.90;99.90
59651;DHT22;45954;49.768;8.636;2022-12-18T14:54:28;-3.00;99.90
59651;DHT22;45954;49.768;8.636;2022-12-18T14:59:32;-3.10;99.90
59651;DHT22;45954;49.768;8.636;2022-12-18T15:02:03;-2.80;99.90
59651;DHT22;45954;49.768;8.636;2022-12-18T15:04:37;-2.60;99.90
59651;DHT22;45954;49.768;8.636;2022-12-18T15:07:21;-2.40;99.90
59651;DHT22;45954;49.768;8.636;2022-12-18T15:12:44;-2.40;99.90
59651;DHT22;45954;49.768;8.636;2022-12-18T15:18:00;-2.80;99.90
59651;DHT22;45954;49.768;8.636;2022-12-18T15:20:27;-2.70;99.90
59651;DHT22;45954;49.768;8.636;2022-12-18T15:22:53;-2.60;99.90
59651;DHT22;45954;49.768;8.636;2022-12-18T15:25:37;-2.60;99.90
59651;DHT22;45954;49.768;8.636;2022-12-18T15:28:19;-2.90;99.90
59651;DHT22;45954;49.768;8.636;2022-12-18T15:33:47;-3.30;99.90
59651;DHT22;45954;49.768;8.636;2022-12-18T15:36:26;-3.20;99.90
59651;DHT22;45954;49.768;8.636;2022-12-18T15:38:54;-3.30;99.90
59651;DHT22;45954;49.768;8.636;2022-12-18T15:41:22;-3.00;99.90
59651;DHT22;45954;49.768;8.636;2022-12-18T15:43:51;-2.90;99.90
59651;DHT22;45954;49.768;8.636;2022-12-18T15:46:20;-2.70;99.90
59651;DHT22;45954;49.768;8.636;2022-12-18T15:48:50;-2.70;99.90
59651;DHT22;45954;49.768;8.636;2022-12-18T15:51:28;-2.70;99.90
59651;DHT22;45954;49.768;8.636;2022-12-18T15:53:59;-2.80;99.90
59651;DHT22;45954;49.768;8.636;2022-12-18T15:56:27;-3.10;99.90
59651;DHT22;45954;49.768;8.636;2022-12-18T15:59:17;-3.10;99.90
59651;DHT22;45954;49.768;8.636;2022-12-18T16:01:46;-3.10;99.90
59651;DHT22;45954;49.768;8.636;2022-12-18T16:04:16;-3.10;99.90
59651;DHT22;45954;49.768;8.636;2022-12-18T16:06:45;-3.00;99.90
59651;DHT22;45954;49.768;8.636;2022-12-18T16:09:12;-3.10;99.90
59651;DHT22;45954;49.768;8.636;2022-12-18T16:11:42;-3.10;99.90
59651;DHT22;45954;49.768;8.636;2022-12-18T16:14:21;-2.80;99.90
59651;DHT22;45954;49.768;8.636;2022-12-18T16:16:51;-2.80;99.90
59651;DHT22;45954;49.768;8.636;2022-12-18T16:19:18;-2.70;99.90
59651;DHT22;45954;49.768;8.636;2022-12-18T16:21:46;-2.80;99.90
59651;DHT22;45954;49.768;8.636;2022-12-18T16:24:23;-2.80;99.90
59651;DHT22;45954;49.768;8.636;2022-12-18T16:26:52;-2.70;99.90
59651;DHT22;45954;49.768;8.636;2022-12-18T16:29:19;-3.00;99.90
59651;DHT22;45954;49.768;8.636;2022-12-18T16:31:53;-2.80;99.90
59651;DHT22;45954;49.768;8.636;2022-12-18T16:34:31;-2.70;99.90
59651;DHT22;45954;49.768;8.636;2022-12-18T16:37:01;-2.60;99.90
59651;DHT22;45954;49.768;8.636;2022-12-18T16:39:29;-2.50;99.90
59651;DHT22;45954;49.768;8.636;2022-12-18T16:41:56;-2.50;99.90
59651;DHT22;45954;49.768;8.636;2022-12-18T16:44:22;-2.40;99.90
59651;DHT22;45954;49.768;8.636;2022-12-18T16:46:48;-2.40;99.90
59651;DHT22;45954;49.768;8.636;2022-12-18T16:49:16;-2.40;99.90
59651;DHT22;45954;49.768;8.636;2022-12-18T16:51:45;-2.50;99.90
59651;DHT22;45954;49.768;8.636;2022-12-18T16:54:12;-2.60;99.90
59651;DHT22;45954;49.768;8.636;2022-12-18T16:56:38;-2.60;99.90
59651;DHT22;45954;49.768;8.636;2022-12-18T16:59:04;-2.60;99.90
59651;DHT22;45954;49.768;8.636;2022-12-18T17:01:31;-2.60;99.90
59651;DHT22;45954;49.768;8.636;2022-12-18T17:04:03;-2.70;99.90
59651;DHT22;45954;49.768;8.636;2022-12-18T17:06:32;-2.70;99.90
59651;DHT22;45954;49.768;8.636;2022-12-18T17:09:02;-2.60;99.90
59651;DHT22;45954;49.768;8.636;2022-12-18T17:11:31;-2.50;99.90
59651;DHT22;45954;49.768;8.636;2022-12-18T17:13:58;-2.50;99.90
59651;DHT22;45954;49.768;8.636;2022-12-18T17:16:24;-2.50;99.90
59651;DHT22;45954;49.768;8.636;2022-12-18T17:18:53;-2.50;99.90
59651;DHT22;45954;49.768;8.636;2022-12-18T17:21:19;-2.40;99.90
59651;DHT22;45954;49.768;8.636;2022-12-18T17:23:45;-2.40;99.90
59651;DHT22;45954;49.768;8.636;2022-12-18T17:26:12;-2.40;99.90
59651;DHT22;45954;49.768;8.636;2022-12-18T17:28:39;-2.40;99.90
59651;DHT22;45954;49.768;8.636;2022-12-18T17:31:20;-2.30;99.90
59651;DHT22;45954;49.768;8.636;2022-12-18T17:33:47;-2.30;99.90
59651;DHT22;45954;49.768;8.636;2022-12-18T17:36:14;-2.30;99.90
59651;DHT22;45954;49.768;8.636;2022-12-18T17:38:42;-2.20;99.90
59651;DHT22;45954;49.768;8.636;2022-12-18T17:41:10;-2.10;99.90
59651;DHT22;45954;49.768;8.636;2022-12-18T17:43:37;-2.10;99.90